createdAt,value
2022-11-15T00:01:56.423Z,109.72
2022-11-15T00:04:42.444Z,103.20
2022-11-15T00:07:54.128Z,99.18
2022-11-15T00:10:34.460Z,99.60
2022-11-15T00:13:20.391Z,109.25
2022-11-15T00:16:06.635Z,119.07
2022-11-15T00:18:52.975Z,119.65
2022-11-15T00:21:38.515Z,104.90
2022-11-15T00:24:24.816Z,144.80
2022-11-15T00:27:10.866Z,157.15
2022-11-15T00:29:57.393Z,142.82
2022-11-15T00:35:30.047Z,138.07
2022-11-15T00:41:08.887Z,121.07
2022-11-15T00:43:55.682Z,125.00
2022-11-15T00:46:41.721Z,136.82
2022-11-15T00:49:27.400Z,118.67
2022-11-15T00:52:13.511Z,135.20
2022-11-15T00:54:59.391Z,115.88
2022-11-15T00:57:45.887Z,121.22
2022-11-15T01:00:35.221Z,127.45
2022-11-15T01:03:21.697Z,130.95
2022-11-15T01:06:08.494Z,143.82
2022-11-15T01:08:54.470Z,131.20
2022-11-15T01:11:40.686Z,135.60
2022-11-15T01:14:27.038Z,137.45
2022-11-15T01:17:12.960Z,146.27
2022-11-15T01:19:58.915Z,138.97
2022-11-15T01:22:44.809Z,114.25
2022-11-15T01:25:30.966Z,124.07
2022-11-15T01:28:16.650Z,137.23
2022-11-15T01:31:05.468Z,135.48
2022-11-15T01:33:51.610Z,124.38
2022-11-15T01:36:38.031Z,116.47
2022-11-15T01:39:23.891Z,104.38
2022-11-15T01:42:14.455Z,132.55
2022-11-15T01:45:00.291Z,120.53
2022-11-15T01:47:52.404Z,123.82
2022-11-15T01:50:38.825Z,123.47
2022-11-15T01:53:27.327Z,127.57
2022-11-15T01:56:17.847Z,131.05
2022-11-15T01:59:07.700Z,123.07
2022-11-15T02:01:53.809Z,142.77
2022-11-15T02:04:49.545Z,133.43
2022-11-15T02:07:37.346Z,126.18
2022-11-15T02:10:25.273Z,139.95
2022-11-15T02:13:11.601Z,147.60
2022-11-15T02:16:07.826Z,133.82
2022-11-15T02:19:16.028Z,123.80
2022-11-15T02:22:20.873Z,116.45
2022-11-15T02:25:09.362Z,120.57
2022-11-15T02:28:04.155Z,124.47
2022-11-15T02:31:01.382Z,133.38
2022-11-15T02:33:53.508Z,153.50
2022-11-15T02:37:00.741Z,134.05
2022-11-15T02:40:15.950Z,141.60
2022-11-15T02:43:28.101Z,142.50
2022-11-15T02:46:18.205Z,134.60
2022-11-15T02:49:04.202Z,147.52
2022-11-15T02:54:38.396Z,142.70
2022-11-15T02:57:39.609Z,174.27
2022-11-15T03:00:25.464Z,169.43
2022-11-15T03:06:31.777Z,144.35
2022-11-15T03:09:37.168Z,145.93
2022-11-15T03:12:47.799Z,148.77
2022-11-15T03:15:50.841Z,147.07
2022-11-15T03:18:42.023Z,139.45
2022-11-15T03:21:33.556Z,167.13
2022-11-15T03:24:26.059Z,150.70
2022-11-15T03:27:18.299Z,125.95
2022-11-15T03:30:10.778Z,139.02
2022-11-15T03:33:01.780Z,164.95
2022-11-15T03:35:49.698Z,124.90
2022-11-15T03:38:36.801Z,158.20
2022-11-15T03:41:51.684Z,148.35
2022-11-15T03:44:49.129Z,162.95
2022-11-15T03:47:39.819Z,142.52
2022-11-15T03:50:27.132Z,137.00
2022-11-15T03:53:13.849Z,148.80
2022-11-15T03:56:00.148Z,159.25
2022-11-15T03:58:46.075Z,138.82
2022-11-15T04:01:32.453Z,138.68
2022-11-15T04:04:18.130Z,120.27
2022-11-15T04:07:04.600Z,123.97
2022-11-15T04:10:06.517Z,127.95
2022-11-15T04:12:52.807Z,123.68
2022-11-15T04:15:38.897Z,112.72
2022-11-15T04:18:25.560Z,125.78
2022-11-15T04:21:29.662Z,135.30
2022-11-15T04:24:16.185Z,112.60
2022-11-15T04:27:02.241Z,121.10
2022-11-15T04:29:48.207Z,112.45
2022-11-15T04:32:34.420Z,108.43
2022-11-15T04:35:20.830Z,115.85
2022-11-15T04:38:08.404Z,117.10
2022-11-15T04:40:54.834Z,114.57
2022-11-15T04:43:40.790Z,109.45
2022-11-15T04:46:26.929Z,111.50
2022-11-15T04:49:12.926Z,94.28
2022-11-15T04:51:59.040Z,91.40
2022-11-15T04:54:45.816Z,79.95
2022-11-15T04:57:32.329Z,83.72
2022-11-15T05:03:23.614Z,79.85
2022-11-15T05:06:09.664Z,89.30
2022-11-15T05:08:56.580Z,86.05
2022-11-15T05:11:42.629Z,89.63
2022-11-15T05:14:28.995Z,88.75
2022-11-15T05:17:14.802Z,91.57
2022-11-15T05:20:01.204Z,102.88
2022-11-15T05:22:47.054Z,91.25
2022-11-15T05:25:33.553Z,106.43
2022-11-15T05:28:19.614Z,82.95
2022-11-15T05:31:06.615Z,86.35
2022-11-15T05:33:53.202Z,86.85
2022-11-15T05:36:43.408Z,88.95
2022-11-15T05:39:29.221Z,83.47
2022-11-15T05:42:17.027Z,91.05
2022-11-15T05:45:05.940Z,96.63
2022-11-15T05:47:53.954Z,97.03
2022-11-15T05:50:42.648Z,128.38
2022-11-15T05:53:29.466Z,104.60
2022-11-15T05:59:02.365Z,97.63
2022-11-15T06:04:34.249Z,91.32
2022-11-15T06:07:20.379Z,101.70
2022-11-15T06:10:06.944Z,104.22
2022-11-15T06:13:04.359Z,99.78
2022-11-15T06:15:50.439Z,132.02
2022-11-15T06:18:37.251Z,100.28
2022-11-15T06:21:23.818Z,106.45
2022-11-15T06:24:09.349Z,115.30
2022-11-15T06:26:55.375Z,92.38
2022-11-15T06:29:41.147Z,100.18
2022-11-15T06:32:27.489Z,102.43
2022-11-15T06:35:14.070Z,109.40
2022-11-15T06:38:09.067Z,102.85
2022-11-15T06:40:54.990Z,83.10
2022-11-15T06:43:42.004Z,87.50
2022-11-15T06:46:28.074Z,93.47
2022-11-15T06:49:14.310Z,133.43
2022-11-15T06:52:00.234Z,109.18
2022-11-15T06:54:46.747Z,95.78
2022-11-15T06:57:33.487Z,82.78
2022-11-15T07:03:06.422Z,73.43
2022-11-15T07:05:54.810Z,76.30
2022-11-15T07:08:40.481Z,81.57
2022-11-15T07:11:26.853Z,106.20
2022-11-15T07:14:12.988Z,91.63
2022-11-15T07:16:59.303Z,95.85
2022-11-15T07:19:45.151Z,104.78
2022-11-15T07:22:31.243Z,93.82
2022-11-15T07:25:17.292Z,78.97
2022-11-15T07:28:04.832Z,78.18
2022-11-15T07:30:51.781Z,74.60
2022-11-15T07:33:38.535Z,80.65
2022-11-15T07:36:24.276Z,82.75
2022-11-15T07:39:11.235Z,87.55
2022-11-15T07:42:16.810Z,84.88
2022-11-15T07:45:03.143Z,80.13
2022-11-15T07:47:50.394Z,65.40
2022-11-15T07:50:36.811Z,79.78
2022-11-15T07:53:23.324Z,77.95
2022-11-15T07:56:10.571Z,74.65
2022-11-15T07:58:56.393Z,74.22
2022-11-15T08:01:42.693Z,69.88
2022-11-15T08:04:28.826Z,67.50
2022-11-15T08:07:15.021Z,58.75
2022-11-15T08:10:02.402Z,52.83
2022-11-15T08:12:48.649Z,50.55
2022-11-15T08:15:35.836Z,50.55
2022-11-15T08:48:12.302Z,46.45
2022-11-15T08:50:58.611Z,38.92
2022-11-15T08:53:44.611Z,49.63
2022-11-15T08:56:30.851Z,52.40
2022-11-15T08:59:16.753Z,46.15
2022-11-15T09:02:03.135Z,45.58
2022-11-15T09:04:49.250Z,39.92
2022-11-15T09:07:35.587Z,38.00
2022-11-15T09:10:21.233Z,41.37
2022-11-15T09:13:07.232Z,46.35
2022-11-15T09:15:52.795Z,52.53
2022-11-15T09:18:38.837Z,61.17
2022-11-15T09:21:24.707Z,56.08
2022-11-15T09:24:10.881Z,51.80
2022-11-15T09:26:56.803Z,51.55
2022-11-15T09:29:43.006Z,46.58
2022-11-15T09:32:37.838Z,47.30
2022-11-15T09:35:24.993Z,43.37
2022-11-15T09:38:10.975Z,36.80
2022-11-15T09:41:15.216Z,33.28
2022-11-15T09:44:17.992Z,37.40
2022-11-15T09:47:16.085Z,39.47
2022-11-15T09:50:09.805Z,37.45
2022-11-15T09:52:39.784Z,38.45
2022-11-15T09:55:11.413Z,38.83
2022-11-15T09:57:48.517Z,37.33
2022-11-15T10:00:47.677Z,38.67
2022-11-15T10:03:19.495Z,36.92
2022-11-15T10:05:51.906Z,36.33
2022-11-15T10:08:38.371Z,35.65
2022-11-15T10:14:10.253Z,32.50
2022-11-15T10:16:40.410Z,33.63
2022-11-15T10:19:26.836Z,35.15
2022-11-15T10:22:27.050Z,33.78
2022-11-15T10:25:10.008Z,26.98
2022-11-15T10:27:37.652Z,29.00
2022-11-15T10:30:11.431Z,32.38
2022-11-15T10:32:39.491Z,30.60
2022-11-15T10:35:27.113Z,29.75
2022-11-15T10:38:09.951Z,31.77
2022-11-15T10:40:39.825Z,30.65
2022-11-15T10:43:20.587Z,31.58
2022-11-15T10:45:48.512Z,32.35
2022-11-15T10:48:15.596Z,31.15
2022-11-15T10:50:48.095Z,29.02
2022-11-15T10:53:45.046Z,29.15
2022-11-15T10:56:16.933Z,28.17
2022-11-15T10:58:51.721Z,29.05
2022-11-15T11:01:23.211Z,29.83
2022-11-15T11:04:06.654Z,33.25
2022-11-15T11:06:58.424Z,33.45
2022-11-15T11:09:36.752Z,33.85
2022-11-15T11:12:10.944Z,33.58
2022-11-15T11:14:40.107Z,33.55
2022-11-15T11:17:13.530Z,27.70
2022-11-15T11:20:08.800Z,27.75
2022-11-15T11:22:58.792Z,27.73
2022-11-15T11:25:26.064Z,26.20
2022-11-15T11:27:59.882Z,28.77
2022-11-15T11:31:01.326Z,29.27
2022-11-15T11:33:36.381Z,28.40
2022-11-15T11:36:24.643Z,27.13
2022-11-15T11:39:12.850Z,35.55
2022-11-15T11:41:55.553Z,38.70
2022-11-15T11:44:46.453Z,37.33
2022-11-15T11:47:25.491Z,30.98
2022-11-15T11:49:57.734Z,30.40
2022-11-15T11:53:03.941Z,30.48
2022-11-15T11:56:00.371Z,32.67
2022-11-15T11:59:12.367Z,29.45
2022-11-15T12:01:44.598Z,29.73
2022-11-15T12:04:30.712Z,30.23
2022-11-15T12:07:03.248Z,31.35
2022-11-15T12:09:45.481Z,31.35
2022-11-15T12:12:31.593Z,26.77
2022-11-15T12:15:11.077Z,27.65
2022-11-15T12:17:42.546Z,29.42
2022-11-15T12:20:24.023Z,29.45
2022-11-15T12:23:12.040Z,29.48
2022-11-15T12:30:22.512Z,27.27
2022-11-15T12:33:00.031Z,28.95
2022-11-15T12:35:46.370Z,27.85
2022-11-15T12:38:34.530Z,26.92
2022-11-15T12:41:23.880Z,30.15
2022-11-15T12:43:51.814Z,28.92
2022-11-15T12:46:30.805Z,32.28
2022-11-15T12:48:58.639Z,28.83
2022-11-15T12:51:44.382Z,29.80
2022-11-15T12:54:24.337Z,29.63
2022-11-15T12:57:21.262Z,28.40
2022-11-15T12:59:56.535Z,27.75
2022-11-15T13:02:33.294Z,26.02
2022-11-15T13:05:16.239Z,28.52
2022-11-15T13:07:43.386Z,28.02
2022-11-15T13:10:13.933Z,28.40
2022-11-15T13:12:47.071Z,26.60
2022-11-15T13:15:14.585Z,31.73
2022-11-15T13:17:41.823Z,28.42
2022-11-15T13:20:09.571Z,28.88
2022-11-15T13:23:00.398Z,44.83
2022-11-15T13:25:34.087Z,37.40
2022-11-15T13:28:07.651Z,49.88
2022-11-15T13:30:35.605Z,53.20
2022-11-15T13:33:11.882Z,43.35
2022-11-15T13:35:46.608Z,50.30
2022-11-15T13:38:31.808Z,45.42
2022-11-15T13:41:01.260Z,61.07
2022-11-15T13:43:36.476Z,44.75
2022-11-15T13:46:17.702Z,48.63
2022-11-15T13:48:47.483Z,44.38
2022-11-15T13:51:22.611Z,44.40
2022-11-15T13:53:59.017Z,49.63
2022-11-15T13:56:29.182Z,40.38
2022-11-15T13:58:56.561Z,31.45
2022-11-15T14:01:33.020Z,29.88
2022-11-15T14:04:04.615Z,29.33
2022-11-15T14:06:32.862Z,29.38
2022-11-15T14:09:12.233Z,30.38
2022-11-15T14:11:52.528Z,31.13
2022-11-15T14:14:23.414Z,32.72
2022-11-15T14:17:00.443Z,30.85
2022-11-15T14:19:27.722Z,31.65
2022-11-15T14:22:13.319Z,40.78
2022-11-15T14:24:44.367Z,41.70
2022-11-15T14:27:30.243Z,50.67
2022-11-15T14:29:57.836Z,51.23
2022-11-15T14:32:28.171Z,50.15
2022-11-15T14:35:03.073Z,50.80
2022-11-15T14:37:35.266Z,50.87
2022-11-15T14:40:04.958Z,49.03
2022-11-15T14:42:33.113Z,49.40
2022-11-15T14:45:00.455Z,52.60
2022-11-15T14:47:27.955Z,50.80
2022-11-15T14:49:55.225Z,50.08
2022-11-15T14:52:33.176Z,53.83
2022-11-15T14:55:04.044Z,52.08
2022-11-15T14:57:32.184Z,51.47
2022-11-15T14:59:59.346Z,41.03
2022-11-15T15:02:41.896Z,39.55
2022-11-15T15:05:34.031Z,37.80
2022-11-15T15:08:02.634Z,38.47
2022-11-15T15:10:42.406Z,37.38
2022-11-15T15:13:22.552Z,37.15
2022-11-15T15:15:52.182Z,37.38
2022-11-15T15:18:21.106Z,40.45
2022-11-15T15:20:57.200Z,41.22
2022-11-15T15:23:26.787Z,42.03
2022-11-15T15:25:54.424Z,44.38
2022-11-15T15:28:21.979Z,47.92
2022-11-15T15:30:50.676Z,43.80
2022-11-15T15:33:18.497Z,41.90
2022-11-15T15:35:45.893Z,44.55
2022-11-15T15:38:13.901Z,50.13
2022-11-15T15:40:41.353Z,50.40
2022-11-15T15:43:10.414Z,58.70
2022-11-15T15:45:41.197Z,66.10
2022-11-15T15:48:17.531Z,84.10
2022-11-15T15:53:13.912Z,116.75
2022-11-15T15:55:41.902Z,114.85
2022-11-15T15:58:09.765Z,148.32
2022-11-15T16:00:38.011Z,160.30
2022-11-15T16:03:05.873Z,169.20
2022-11-15T16:05:33.064Z,141.70
2022-11-15T16:08:00.820Z,138.40
2022-11-15T16:10:30.635Z,126.55
2022-11-15T16:12:59.263Z,137.27
2022-11-15T16:15:32.034Z,151.77
2022-11-15T16:18:02.543Z,144.52
2022-11-15T16:20:45.580Z,146.90
2022-11-15T16:23:18.979Z,124.75
2022-11-15T16:25:52.808Z,131.40
2022-11-15T16:28:31.233Z,134.98
2022-11-15T16:31:12.687Z,134.15
2022-11-15T16:33:41.418Z,148.18
2022-11-15T16:36:29.480Z,148.88
2022-11-15T16:38:59.625Z,154.10
2022-11-15T16:41:27.603Z,183.70
2022-11-15T16:43:55.484Z,112.00
2022-11-15T16:46:24.936Z,91.53
2022-11-15T16:48:54.145Z,126.00
2022-11-15T16:51:21.759Z,132.93
2022-11-15T16:53:50.271Z,164.43
2022-11-15T16:56:34.915Z,160.07
2022-11-15T16:59:02.816Z,152.57
2022-11-15T17:01:50.893Z,148.55
2022-11-15T17:04:20.636Z,153.10
2022-11-15T17:06:48.882Z,162.63
2022-11-15T17:09:25.685Z,203.93
2022-11-15T17:11:53.183Z,232.98
2022-11-15T17:14:20.842Z,196.63
2022-11-15T17:16:48.699Z,204.55
2022-11-15T17:19:20.530Z,214.23
2022-11-15T17:21:52.295Z,223.57
2022-11-15T17:24:21.344Z,274.50
2022-11-15T17:26:48.804Z,261.63
2022-11-15T17:29:16.483Z,235.95
2022-11-15T17:31:44.531Z,254.88
2022-11-15T17:34:12.286Z,233.60
2022-11-15T17:36:39.933Z,250.70
2022-11-15T17:39:07.781Z,212.23
2022-11-15T17:41:35.161Z,182.70
2022-11-15T17:44:03.845Z,107.80
2022-11-15T17:46:31.598Z,103.75
2022-11-15T17:49:00.012Z,97.47
2022-11-15T17:51:27.565Z,102.93
2022-11-15T17:53:56.965Z,161.85
2022-11-15T17:56:26.417Z,127.05
2022-11-15T17:58:59.362Z,129.23
2022-11-15T18:01:32.416Z,118.43
2022-11-15T18:04:02.322Z,116.20
2022-11-15T18:06:34.604Z,132.88
2022-11-15T18:09:04.321Z,147.82
2022-11-15T18:11:38.659Z,145.55
2022-11-15T18:14:09.174Z,173.05
2022-11-15T18:16:37.972Z,171.50
2022-11-15T18:19:13.515Z,164.90
2022-11-15T18:22:00.731Z,167.93
2022-11-15T18:24:35.185Z,153.82
2022-11-15T18:27:05.506Z,156.82
2022-11-15T18:29:35.814Z,190.85
2022-11-15T18:32:06.600Z,210.57
2022-11-15T18:34:34.522Z,248.27
2022-11-15T18:37:03.571Z,263.30
2022-11-15T18:39:31.497Z,249.93
2022-11-15T18:41:59.145Z,244.82
2022-11-15T18:44:29.493Z,283.95
2022-11-15T18:46:57.454Z,315.52
2022-11-15T18:49:25.284Z,290.80
2022-11-15T18:51:52.714Z,288.67
2022-11-15T18:54:20.412Z,289.48
2022-11-15T18:56:48.296Z,274.45
2022-11-15T18:59:16.511Z,263.02
2022-11-15T19:01:48.744Z,251.55
2022-11-15T19:04:18.984Z,257.33
2022-11-15T19:06:49.360Z,253.75
2022-11-15T19:09:19.693Z,245.45
2022-11-15T19:11:51.761Z,238.75
2022-11-15T19:14:24.501Z,222.07
2022-11-15T19:16:52.881Z,214.52
2022-11-15T19:19:27.985Z,181.50
2022-11-15T19:21:57.362Z,191.25
2022-11-15T19:24:27.561Z,184.07
2022-11-15T19:26:55.413Z,185.13
2022-11-15T19:29:23.465Z,194.40
2022-11-15T19:31:51.043Z,208.63
2022-11-15T19:34:19.099Z,199.63
2022-11-15T19:36:46.552Z,198.82
2022-11-15T19:39:18.347Z,192.07
2022-11-15T19:41:47.407Z,193.25
2022-11-15T19:44:15.331Z,182.30
2022-11-15T19:46:44.573Z,189.43
2022-11-15T19:49:12.471Z,187.60
2022-11-15T19:51:42.830Z,208.90
2022-11-15T19:54:11.365Z,205.40
2022-11-15T19:56:40.183Z,212.15
2022-11-15T19:59:09.143Z,232.40
2022-11-15T20:01:38.983Z,281.10
2022-11-15T20:04:08.352Z,271.42
2022-11-15T20:06:42.497Z,276.00
2022-11-15T20:09:16.043Z,281.20
2022-11-15T20:11:43.895Z,285.70
2022-11-15T20:14:13.295Z,269.48
2022-11-15T20:16:41.731Z,285.08
2022-11-15T20:19:09.594Z,291.80
2022-11-15T20:21:37.045Z,292.98
2022-11-15T20:24:07.133Z,287.65
2022-11-15T20:26:35.813Z,288.58
2022-11-15T20:29:04.203Z,282.67
2022-11-15T20:31:32.063Z,274.83
2022-11-15T20:34:00.370Z,261.65
2022-11-15T20:36:28.301Z,239.52
2022-11-15T20:38:59.917Z,234.90
2022-11-15T20:41:28.391Z,235.18
2022-11-15T20:43:56.492Z,234.25
2022-11-15T20:46:23.744Z,225.95
2022-11-15T20:48:51.475Z,210.05
2022-11-15T20:51:19.154Z,219.57
2022-11-15T20:53:47.857Z,221.65
2022-11-15T20:56:17.935Z,214.65
2022-11-15T20:58:46.192Z,223.38
2022-11-15T21:01:15.768Z,229.30
2022-11-15T21:03:44.259Z,228.18
2022-11-15T21:06:12.111Z,215.93
2022-11-15T21:08:58.403Z,232.55
2022-11-15T21:11:45.572Z,229.45
2022-11-15T21:16:42.095Z,245.90
2022-11-15T21:19:09.731Z,258.38
2022-11-15T21:21:38.649Z,284.42
2022-11-15T21:24:09.404Z,323.83
2022-11-15T21:26:37.452Z,330.55
2022-11-15T21:29:05.432Z,336.65
2022-11-15T21:31:32.905Z,318.38
2022-11-15T21:34:04.116Z,292.00
2022-11-15T21:36:31.426Z,279.88
2022-11-15T21:38:59.087Z,266.40
2022-11-15T21:41:26.534Z,261.58
2022-11-15T21:43:59.241Z,290.23
2022-11-15T21:46:27.613Z,244.93
2022-11-15T21:48:56.412Z,224.00
2022-11-15T21:51:24.462Z,219.77
2022-11-15T21:53:56.587Z,221.55
2022-11-15T21:56:25.830Z,215.65
2022-11-15T21:58:54.492Z,232.52
2022-11-15T22:01:41.998Z,252.52
2022-11-15T22:04:10.024Z,254.57
2022-11-15T22:06:37.766Z,253.23
2022-11-15T22:09:06.769Z,247.70
2022-11-15T22:11:34.837Z,226.43
2022-11-15T22:14:03.447Z,239.55
2022-11-15T22:16:31.442Z,224.57
2022-11-15T22:18:59.578Z,225.63
2022-11-15T22:21:27.078Z,222.82
2022-11-15T22:23:54.957Z,223.90
2022-11-15T22:26:23.965Z,232.35
2022-11-15T22:28:52.672Z,224.05
2022-11-15T22:31:20.602Z,217.93
2022-11-15T22:33:48.506Z,242.80
2022-11-15T22:36:16.071Z,249.15
2022-11-15T22:38:44.096Z,247.55
2022-11-15T22:41:11.637Z,251.68
2022-11-15T22:43:39.516Z,258.92
2022-11-15T22:46:06.930Z,255.05
2022-11-15T22:48:38.377Z,300.65
2022-11-15T22:51:06.668Z,279.05
2022-11-15T22:53:34.398Z,296.05
2022-11-15T22:56:03.997Z,272.30
2022-11-15T22:58:33.544Z,266.08
2022-11-15T23:01:03.588Z,270.42
2022-11-15T23:03:32.877Z,303.42
2022-11-15T23:06:05.779Z,305.98
2022-11-15T23:08:34.303Z,306.25
2022-11-15T23:11:21.904Z,322.27
2022-11-15T23:13:53.297Z,325.30
2022-11-15T23:16:25.992Z,316.40
2022-11-15T23:18:58.325Z,325.50
2022-11-15T23:22:04.038Z,321.95
2022-11-15T23:24:33.303Z,313.55
2022-11-15T23:27:03.810Z,319.48
2022-11-15T23:29:31.561Z,312.25
2022-11-15T23:32:17.430Z,311.88
2022-11-15T23:34:46.570Z,317.27
2022-11-15T23:37:15.535Z,316.20
2022-11-15T23:39:43.275Z,332.70
2022-11-15T23:42:20.150Z,316.83
2022-11-15T23:44:50.341Z,322.88
2022-11-15T23:47:18.964Z,326.38
2022-11-15T23:49:47.120Z,336.25
2022-11-15T23:52:15.787Z,324.35
2022-11-15T23:54:43.605Z,342.27
2022-11-15T23:57:12.637Z,335.17
2022-11-15T23:59:41.272Z,329.38
